Time;durP1;ratioP1;P1;durP2;ratioP2;P2;SDS_P1;SDS_P2;PMS_P1;PMS_P2;Temp;Humidity;BMP_temperature;BMP_pressure;BME280_temperature;BME280_humidity;BME280_pressure;Samples;Min_cycle;Max_cycle;Signal;HPM_P1;HPM_P2
2022/06/30 00:01:08;;;;;;;2.75;0.70;;;;;;;;;;20925750;28;20573;-64
2022/06/30 00:11:11;;;;;;;1.10;0.40;;;;;;;;;;20924247;28;20055;-65
2022/06/30 00:21:13;;;;;;;2.50;0.90;;;25.60;33.40;;;;;;20922799;28;20053;-64
2022/06/30 00:31:15;;;;;;;2.35;0.45;;;;;;;;;;20922234;28;20084;-64
2022/06/30 00:41:16;;;;;;;2.25;0.50;;;24.30;35.00;;;;;;20922670;28;20546;-64
2022/06/30 00:51:18;;;;;;;0.90;0.55;;;24.10;35.10;;;;;;20920944;28;20140;-64
2022/06/30 01:01:20;;;;;;;1.70;0.40;;;24.00;35.40;;;;;;20919748;28;20053;-64
2022/06/30 01:22:04;;;;;;;1.33;0.45;;;23.70;35.50;;;;;;20918257;28;20080;-64
2022/06/30 01:32:06;;;;;;;5.30;3.35;;;23.70;35.70;;;;;;20917709;28;20079;-65
2022/06/30 01:42:09;;;;;;;2.13;0.68;;;23.40;35.70;;;;;;20916881;28;20113;-66
2022/06/30 01:52:14;;;;;;;2.90;0.50;;;;;;;;;;20916059;28;20099;-64
2022/06/30 02:02:20;;;;;;;2.15;0.63;;;;;;;;;;20914874;28;20125;-65
2022/06/30 02:12:47;;;;;;;3.90;1.00;;;;;;;;;;20915480;28;20053;-65
2022/06/30 02:22:52;;;;;;;2.70;0.70;;;;;;;;;;20914064;28;20425;-63
2022/06/30 02:32:58;;;;;;;2.05;0.60;;;23.80;34.10;;;;;;20913353;28;20049;-62
2022/06/30 02:43:00;;;;;;;2.55;0.68;;;23.20;34.90;;;;;;20914400;28;20108;-63
2022/06/30 02:53:04;;;;;;;3.05;0.90;;;22.50;35.80;;;;;;20912605;28;20490;-64
2022/06/30 03:03:07;;;;;;;2.08;0.55;;;22.40;36.20;;;;;;20912081;28;20045;-65
2022/06/30 03:13:09;;;;;;;2.50;0.93;;;22.30;36.40;;;;;;20915466;28;20056;-63
2022/06/30 03:23:12;;;;;;;2.20;0.77;;;22.50;36.50;;;;;;20927627;28;20064;-64
2022/06/30 03:33:14;;;;;;;0.90;0.50;;;22.20;36.80;;;;;;20927516;28;20120;-63
2022/06/30 03:43:17;;;;;;;2.83;1.00;;;;;;;;;;20925922;28;20143;-65
2022/06/30 03:53:19;;;;;;;4.88;0.85;;;;;;;;;;20926204;28;20450;-64
2022/06/30 04:03:21;;;;;;;5.88;0.88;;;;;;;;;;20923871;28;20052;-63
2022/06/30 04:13:23;;;;;;;3.20;0.90;;;23.10;35.90;;;;;;20923891;28;20477;-63
2022/06/30 04:23:26;;;;;;;1.38;0.63;;;;;;;;;;20922426;28;20053;-62
2022/06/30 04:33:28;;;;;;;5.15;0.80;;;;;;;;;;20921939;28;20092;-65
2022/06/30 04:43:30;;;;;;;4.47;0.88;;;;;;;;;;20921557;28;20049;-63
2022/06/30 04:53:33;;;;;;;2.72;0.70;;;;;;;;;;20921324;28;20421;-64
2022/06/30 05:03:35;;;;;;;5.20;0.93;;;22.80;36.60;;;;;;20919697;28;20119;-64
2022/06/30 05:13:37;;;;;;;4.55;1.60;;;;;;;;;;20920295;28;20413;-65
2022/06/30 05:26:28;;;;;;;3.75;1.13;;;22.90;37.00;;;;;;20918446;28;20060;-65
2022/06/30 05:34:01;;;;;;;11.32;2.17;;;22.90;37.10;;;;;;20917382;28;20098;-64
2022/06/30 05:44:03;;;;;;;3.33;1.10;;;21.80;38.80;;;;;;20917224;28;20056;-66
2022/06/30 05:54:05;;;;;;;4.82;1.00;;;22.30;38.40;;;;;;20915680;28;20045;-64
2022/06/30 06:04:07;;;;;;;4.03;1.02;;;22.20;38.50;;;;;;20916211;28;20045;-68
2022/06/30 06:14:09;;;;;;;2.67;0.93;;;;;;;;;;20914499;28;20071;-64
2022/06/30 06:24:11;;;;;;;5.97;1.05;;;23.00;37.40;;;;;;20913834;28;20146;-64
2022/06/30 06:34:13;;;;;;;2.53;1.00;;;22.00;39.20;;;;;;20912893;28;20067;-65
2022/06/30 06:44:15;;;;;;;4.47;0.82;;;22.00;39.40;;;;;;20913043;28;20474;-65
2022/06/30 06:54:17;;;;;;;4.63;1.15;;;22.20;39.50;;;;;;20911863;28;20179;-65
2022/06/30 07:04:19;;;;;;;3.55;1.13;;;22.60;38.90;;;;;;20911765;28;20045;-62
2022/06/30 07:14:21;;;;;;;2.85;0.98;;;;;;;;;;20907061;28;20053;-61
2022/06/30 07:24:23;;;;;;;3.97;1.08;;;;;;;;;;20908962;28;20072;-62
2022/06/30 07:34:25;;;;;;;2.28;0.80;;;27.30;32.60;;;;;;20908833;28;20045;-72
2022/06/30 07:44:26;;;;;;;3.90;1.20;;;27.20;32.80;;;;;;20910447;28;20045;-69
2022/06/30 07:54:28;;;;;;;6.57;1.80;;;26.60;33.50;;;;;;20909232;28;20082;-69
2022/06/30 08:04:30;;;;;;;6.22;1.40;;;26.90;33.00;;;;;;20920369;28;20055;-56
2022/06/30 08:14:32;;;;;;;6.28;1.10;;;27.30;32.70;;;;;;20923416;28;20504;-64
2022/06/30 08:24:35;;;;;;;3.38;1.27;;;27.40;32.50;;;;;;20919890;28;20107;-56
2022/06/30 08:34:37;;;;;;;2.30;1.02;;;27.40;32.50;;;;;;20921485;28;20159;-58
2022/06/30 08:44:43;;;;;;;3.08;1.38;;;27.50;32.00;;;;;;20920774;28;20478;-65
2022/06/30 08:54:45;;;;;;;2.15;1.00;;;27.40;31.60;;;;;;20919331;28;20060;-61
2022/06/30 09:04:46;;;;;;;4.75;1.75;;;27.40;31.50;;;;;;20917421;28;20092;-62
2022/06/30 09:14:49;;;;;;;6.32;1.08;;;28.40;30.40;;;;;;20916253;28;20061;-62
2022/06/30 09:24:57;;;;;;;3.78;0.98;;;27.70;30.90;;;;;;20916617;28;20053;-64
2022/06/30 09:35:10;;;;;;;4.63;1.15;;;29.00;29.40;;;;;;20917364;28;20408;-63
2022/06/30 09:45:13;;;;;;;5.75;1.20;;;27.80;31.00;;;;;;20916621;28;20516;-62
2022/06/30 09:55:15;;;;;;;3.80;1.13;;;26.90;34.80;;;;;;20918442;28;20507;-58
2022/06/30 10:10:16;;;;;;;4.33;1.10;;;;;;;;;;21198297;27;20429;-64
2022/06/30 10:20:18;;;;;;;6.40;1.70;;;;;;;;;;21173203;27;20473;-66
2022/06/30 10:30:23;;;;;;;4.10;1.10;;;;;;;;;;21196502;27;20078;-59
2022/06/30 10:40:28;;;;;;;4.55;1.02;;;;;;;;;;21170276;27;20047;-62
2022/06/30 10:50:35;;;;;;;3.35;1.38;;;;;;;;;;21209191;27;20056;-62
2022/06/30 11:00:43;;;;;;;6.73;1.43;;;;;;;;;;21225935;27;20099;-61
2022/06/30 11:10:46;;;;;;;6.15;0.88;;;;;;;;;;21249362;28;20108;-64
2022/06/30 11:20:48;;;;;;;2.85;1.08;;;;;;;;;;21179871;28;20059;-60
2022/06/30 11:30:50;;;;;;;1.40;0.70;;;;;;;;;;21173677;28;20044;-58
2022/06/30 11:41:54;;;;;;;3.72;0.77;;;;;;;;;;21172481;28;20040;-57
2022/06/30 11:51:15;;;;;;;2.67;0.90;;;;;;;;;;21172445;28;20503;-65
2022/06/30 12:01:17;;;;;;;1.55;0.60;;;;;;;;;;21171404;28;20495;-57
2022/06/30 12:11:19;;;;;;;4.57;1.00;;;;;;;;;;21151425;28;20056;-62
2022/06/30 12:21:21;;;;;;;4.60;1.83;;;;;;;;;;21169127;28;20090;-62
2022/06/30 12:31:28;;;;;;;2.15;0.70;;;;;;;;;;21168628;28;20052;-65
2022/06/30 12:41:30;;;;;;;3.57;1.10;;;;;;;;;;21167791;28;20483;-61
2022/06/30 12:51:32;;;;;;;1.08;0.73;;;;;;;;;;21166779;28;20483;-63
2022/06/30 13:01:38;;;;;;;1.85;0.80;;;;;;;;;;21167332;28;20052;-63
2022/06/30 13:11:46;;;;;;;1.83;0.90;;;;;;;;;;21167370;28;20047;-62
2022/06/30 13:21:49;;;;;;;2.15;0.73;;;;;;;;;;21168521;28;20518;-64
2022/06/30 13:31:52;;;;;;;1.95;0.95;;;;;;;;;;21165278;28;20407;-59
2022/06/30 13:41:54;;;;;;;1.42;0.68;;;;;;;;;;21167904;28;20408;-63
2022/06/30 13:51:57;;;;;;;1.70;0.40;;;;;;;;;;21166695;28;20472;-64
2022/06/30 14:01:59;;;;;;;2.88;0.70;;;;;;;;;;21163285;28;20047;-62
2022/06/30 14:12:01;;;;;;;6.88;1.35;;;;;;;;;;21163242;28;20403;-63
2022/06/30 14:22:03;;;;;;;3.45;0.80;;;;;;;;;;21162269;28;20048;-63
2022/06/30 14:32:06;;;;;;;1.58;0.50;;;;;;;;;;21162594;28;20047;-56
2022/06/30 14:52:29;;;;;;;3.20;1.50;;;;;;;;;;21171207;28;20400;-63
2022/06/30 15:02:31;;;;;;;1.92;0.60;;;;;;;;;;21176683;28;20079;-60
2022/06/30 15:12:33;;;;;;;3.70;0.40;;;;;;;;;;21175692;28;20051;-60
2022/06/30 15:32:57;;;;;;;3.30;0.60;;;;;;;;;;21174685;28;20047;-58
2022/06/30 15:42:59;;;;;;;1.77;0.70;;;;;;;;;;21173475;28;20116;-60
2022/06/30 15:53:00;;;;;;;1.75;0.70;;;;;;;;;;21172811;28;20044;-61
2022/06/30 16:03:02;;;;;;;1.00;0.57;;;;;;;;;;21171507;28;20051;-59
2022/06/30 16:13:04;;;;;;;1.00;0.40;;;;;;;;;;21170842;28;20112;-56
2022/06/30 16:23:07;;;;;;;1.50;0.65;;;;;;;;;;21170307;28;20502;-59
2022/06/30 16:33:10;;;;;;;3.13;0.77;;;;;;;;;;21151561;28;20091;-56
2022/06/30 16:43:12;;;;;;;2.03;0.50;;;;;;;;;;21150505;28;20046;-57
2022/06/30 16:53:14;;;;;;;3.47;0.60;;;;;;;;;;21085153;28;20123;-55
2022/06/30 17:03:16;;;;;;;0.85;0.30;;;;;;;;;;21082295;28;20135;-56
2022/06/30 17:13:18;;;;;;;0.93;0.50;;;;;;;;;;21081043;28;20047;-56
2022/06/30 17:23:21;;;;;;;2.33;0.85;;;;;;;;;;21118274;28;20043;-57
2022/06/30 17:33:23;;;;;;;1.30;0.80;;;;;;;;;;21165570;28;20044;-61
2022/06/30 17:43:25;;;;;;;0.47;0.30;;;;;;;;;;21163857;28;20052;-57
2022/06/30 17:53:27;;;;;;;1.10;0.40;;;;;;;;;;21163527;28;20070;-56
2022/06/30 18:03:30;;;;;;;5.00;0.50;;;;;;;;;;21162675;28;20130;-57
2022/06/30 18:13:32;;;;;;;2.58;0.55;;;;;;;;;;21162353;28;20039;-57
2022/06/30 18:23:34;;;;;;;1.27;0.30;;;;;;;;;;21164446;28;20044;-59
2022/06/30 18:33:37;;;;;;;1.15;0.57;;;;;;;;;;21162235;28;20044;-59
2022/06/30 18:43:39;;;;;;;0.90;0.40;;;;;;;;;;21179363;28;20051;-60
2022/06/30 18:53:41;;;;;;;1.73;0.80;;;;;;;;;;21178183;28;20043;-59
2022/06/30 19:03:43;;;;;;;0.60;0.25;;;;;;;;;;21176380;28;20483;-60
2022/06/30 19:13:45;;;;;;;1.33;0.30;;;;;;;;;;21175953;28;20394;-58
2022/06/30 19:23:48;;;;;;;4.18;0.57;;;;;;;;;;21174502;28;20055;-60
2022/06/30 19:33:50;;;;;;;0.80;0.30;;;;;;;;;;21226730;27;20526;-55
2022/06/30 19:43:52;;;;;;;0.73;0.30;;;;;;;;;;21265468;27;20054;-56
2022/06/30 19:53:54;;;;;;;1.83;0.88;;;;;;;;;;21265257;27;20134;-58
2022/06/30 20:14:17;;;;;;;1.75;0.40;;;;;;;;;;21260172;27;20050;-55
2022/06/30 20:24:20;;;;;;;1.15;0.70;;;;;;;;;;21262082;27;20055;-58
2022/06/30 20:34:22;;;;;;;1.42;0.98;;;;;;;;;;21261104;27;20050;-57
2022/06/30 20:44:24;;;;;;;4.28;0.77;;;;;;;;;;21256346;27;20043;-57
2022/06/30 20:54:26;;;;;;;2.35;0.63;;;;;;;;;;21253486;27;20070;-58
2022/06/30 21:04:28;;;;;;;1.50;0.70;;;;;;;;;;21252715;27;20452;-57
2022/06/30 21:14:30;;;;;;;1.40;0.52;;;;;;;;;;21252038;27;20076;-56
2022/06/30 21:24:32;;;;;;;6.13;0.60;;;;;;;;;;21252236;27;20054;-58
2022/06/30 21:34:35;;;;;;;1.35;0.32;;;;;;;;;;21252669;27;20055;-55
2022/06/30 21:44:37;;;;;;;1.60;0.65;;;;;;;;;;21250380;27;20138;-56
2022/06/30 21:54:39;;;;;;;4.03;2.45;;;;;;;;;;21250361;27;20039;-55
2022/06/30 22:04:42;;;;;;;2.58;1.00;;;;;;;;;;21241442;27;20051;-55
2022/06/30 22:14:44;;;;;;;2.10;0.57;;;;;;;;;;21248457;28;20452;-55
2022/06/30 22:24:46;;;;;;;1.10;0.57;;;;;;;;;;21249022;28;20092;-57
2022/06/30 22:34:49;;;;;;;2.15;0.38;;;;;;;;;;21250786;28;20046;-58
2022/06/30 22:44:51;;;;;;;2.28;0.60;;;;;;;;;;21247532;28;20126;-56
2022/06/30 22:54:53;;;;;;;1.20;0.68;;;;;;;;;;21247462;28;20039;-59
2022/06/30 23:04:56;;;;;;;3.67;0.80;;;;;;;;;;21245458;28;20051;-59
2022/06/30 23:14:58;;;;;;;2.95;0.80;;;;;;;;;;21256057;27;20051;-56
2022/06/30 23:25:01;;;;;;;7.32;0.77;;;;;;;;;;21261043;27;20505;-58
2022/06/30 23:35:03;;;;;;;5.68;0.80;;;;;;;;;;21259761;27;20043;-56
2022/06/30 23:45:05;;;;;;;5.00;0.95;;;;;;;;;;21258329;27;20544;-55
2022/06/30 23:55:07;;;;;;;2.28;0.70;;;;;;;;;;21257714;27;20043;-55
